createdAt,value
2018-09-13T00:00:53.175Z,15.40
2018-09-13T00:03:21.399Z,15.30
2018-09-13T00:05:50.018Z,15.30
2018-09-13T00:08:17.862Z,15.30
2018-09-13T00:10:45.727Z,15.30
2018-09-13T00:13:13.603Z,15.30
2018-09-13T00:15:41.529Z,15.30
2018-09-13T00:18:09.322Z,15.30
2018-09-13T00:20:37.169Z,15.30
2018-09-13T00:23:05.306Z,15.30
2018-09-13T00:25:33.108Z,15.30
2018-09-13T00:28:01.017Z,15.20
2018-09-13T00:30:28.902Z,15.20
2018-09-13T00:32:57.297Z,15.20
2018-09-13T00:35:25.226Z,15.20
2018-09-13T00:37:53.066Z,15.20
2018-09-13T00:40:20.806Z,15.00
2018-09-13T00:42:48.655Z,15.00
2018-09-13T00:45:16.711Z,15.00
2018-09-13T00:47:44.701Z,15.10
2018-09-13T00:50:13.607Z,15.00
2018-09-13T00:52:41.915Z,15.00
2018-09-13T00:55:09.781Z,14.90
2018-09-13T00:57:37.815Z,14.90
2018-09-13T01:00:06.104Z,14.90
2018-09-13T01:02:34.216Z,14.90
2018-09-13T01:05:01.907Z,14.80
2018-09-13T01:07:30.212Z,14.80
2018-09-13T01:09:57.944Z,14.80
2018-09-13T01:12:25.756Z,14.80
2018-09-13T01:14:55.346Z,14.90
2018-09-13T01:17:23.166Z,14.90
2018-09-13T01:19:50.952Z,14.80
2018-09-13T01:22:18.709Z,14.80
2018-09-13T01:24:46.682Z,14.80
2018-09-13T01:27:14.753Z,14.80
2018-09-13T01:29:42.539Z,14.80
2018-09-13T01:32:10.438Z,14.80
2018-09-13T01:34:38.445Z,14.80
2018-09-13T01:37:06.278Z,14.80
2018-09-13T01:39:34.118Z,14.70
2018-09-13T01:42:01.852Z,14.70
2018-09-13T01:44:29.668Z,14.70
2018-09-13T01:46:57.593Z,14.60
2018-09-13T01:49:25.304Z,14.60
2018-09-13T01:51:53.007Z,14.60
2018-09-13T01:54:20.858Z,14.50
2018-09-13T01:56:48.760Z,14.50
2018-09-13T01:59:16.516Z,14.50
2018-09-13T02:01:44.502Z,14.50
2018-09-13T02:04:12.191Z,14.40
2018-09-13T02:06:39.913Z,14.40
2018-09-13T02:09:09.302Z,14.40
2018-09-13T02:11:37.403Z,14.30
2018-09-13T02:14:05.285Z,14.30
2018-09-13T02:16:32.900Z,14.30
2018-09-13T02:19:00.645Z,14.30
2018-09-13T02:21:28.357Z,14.30
2018-09-13T02:23:56.430Z,14.20
2018-09-13T02:26:24.372Z,14.20
2018-09-13T02:28:52.231Z,14.20
2018-09-13T02:31:19.994Z,14.10
2018-09-13T02:33:48.060Z,14.10
2018-09-13T02:36:15.848Z,14.10
2018-09-13T02:38:43.851Z,14.10
2018-09-13T02:41:11.630Z,14.10
2018-09-13T02:43:39.454Z,14.10
2018-09-13T02:46:07.433Z,14.10
2018-09-13T02:48:35.205Z,14.20
2018-09-13T02:51:03.052Z,14.20
2018-09-13T02:53:30.815Z,14.20
2018-09-13T02:55:58.460Z,14.20
2018-09-13T02:58:26.231Z,14.20
2018-09-13T03:00:54.056Z,14.10
2018-09-13T03:03:21.819Z,14.10
2018-09-13T03:05:49.838Z,14.10
2018-09-13T03:08:17.755Z,14.10
2018-09-13T03:10:45.429Z,14.10
2018-09-13T03:13:13.302Z,14.10
2018-09-13T03:15:41.034Z,14.10
2018-09-13T03:18:08.868Z,14.10
2018-09-13T03:20:36.988Z,14.10
2018-09-13T03:23:04.632Z,14.10
2018-09-13T03:25:32.487Z,14.00
2018-09-13T03:28:00.251Z,14.00
2018-09-13T03:30:28.153Z,14.00
2018-09-13T03:32:55.944Z,14.00
2018-09-13T03:35:23.661Z,13.90
2018-09-13T03:37:51.292Z,13.90
2018-09-13T03:40:19.317Z,13.90
2018-09-13T03:42:47.230Z,13.90
2018-09-13T03:45:14.935Z,13.90
2018-09-13T03:47:42.696Z,14.00
2018-09-13T03:50:10.495Z,14.00
2018-09-13T03:52:38.497Z,14.00
2018-09-13T03:55:06.415Z,13.90
2018-09-13T03:57:34.454Z,13.90
2018-09-13T04:00:02.347Z,13.90
2018-09-13T04:02:30.584Z,13.90
2018-09-13T04:04:58.370Z,13.90
2018-09-13T04:07:26.384Z,13.90
2018-09-13T04:09:54.329Z,14.00
2018-09-13T04:12:22.331Z,14.00
2018-09-13T04:14:50.739Z,13.90
2018-09-13T04:17:18.480Z,13.90
2018-09-13T04:19:46.868Z,13.80
2018-09-13T04:22:15.556Z,13.90
2018-09-13T04:24:43.858Z,13.90
2018-09-13T04:27:11.880Z,13.80
2018-09-13T04:29:40.022Z,13.90
2018-09-13T04:32:07.867Z,13.80
2018-09-13T04:34:35.658Z,13.80
2018-09-13T04:37:03.429Z,13.80
2018-09-13T04:39:31.223Z,13.80
2018-09-13T04:43:02.180Z,13.80
2018-09-13T04:45:30.113Z,13.90
2018-09-13T04:47:57.957Z,13.80
2018-09-13T04:50:25.885Z,13.90
2018-09-13T04:52:53.594Z,13.90
2018-09-13T04:55:21.631Z,13.90
2018-09-13T04:57:49.481Z,13.90
2018-09-13T05:00:17.291Z,14.00
2018-09-13T05:02:45.259Z,14.00
2018-09-13T05:05:13.250Z,13.90
2018-09-13T05:07:41.042Z,14.00
2018-09-13T05:10:08.900Z,14.00
2018-09-13T05:12:36.749Z,14.00
2018-09-13T05:15:04.729Z,14.00
2018-09-13T05:17:32.516Z,14.00
2018-09-13T05:20:00.224Z,13.90
2018-09-13T05:22:28.197Z,13.90
2018-09-13T05:24:55.945Z,13.90
2018-09-13T05:27:23.999Z,13.90
2018-09-13T05:29:51.827Z,13.80
2018-09-13T05:32:19.877Z,13.90
2018-09-13T05:34:47.940Z,13.90
2018-09-13T05:37:15.726Z,13.90
2018-09-13T05:39:43.713Z,13.90
2018-09-13T05:42:11.630Z,13.90
2018-09-13T05:44:39.288Z,14.00
2018-09-13T05:47:07.081Z,13.90
2018-09-13T05:49:34.990Z,14.00
2018-09-13T05:52:02.789Z,14.00
2018-09-13T05:54:30.607Z,14.00
2018-09-13T05:56:58.530Z,14.00
2018-09-13T05:59:26.462Z,14.00
2018-09-13T06:01:54.317Z,14.00
2018-09-13T06:04:22.408Z,14.00
2018-09-13T06:06:50.185Z,14.10
2018-09-13T06:09:17.896Z,14.00
2018-09-13T06:11:45.590Z,14.10
2018-09-13T06:14:13.544Z,14.10
2018-09-13T06:16:41.445Z,14.00
2018-09-13T06:19:09.143Z,14.10
2018-09-13T06:21:36.991Z,14.00
2018-09-13T06:24:05.621Z,14.10
2018-09-13T06:26:34.187Z,14.10
2018-09-13T06:29:01.984Z,14.00
2018-09-13T06:31:30.053Z,14.00
2018-09-13T06:33:58.080Z,14.00
2018-09-13T06:36:26.059Z,14.00
2018-09-13T06:38:54.006Z,14.00
2018-09-13T06:41:21.786Z,14.10
2018-09-13T06:43:54.972Z,14.10
2018-09-13T06:46:23.521Z,14.10
2018-09-13T06:48:52.175Z,14.20
2018-09-13T06:51:19.947Z,14.20
2018-09-13T06:53:48.212Z,14.20
2018-09-13T06:56:16.243Z,14.20
2018-09-13T06:58:44.340Z,14.30
2018-09-13T07:01:12.307Z,14.20
2018-09-13T07:03:40.336Z,14.20
2018-09-13T07:06:08.033Z,14.30
2018-09-13T07:08:35.804Z,14.30
2018-09-13T07:11:03.769Z,14.40
2018-09-13T07:13:31.952Z,14.50
2018-09-13T07:15:59.691Z,14.50
2018-09-13T07:18:27.517Z,14.50
2018-09-13T07:20:55.496Z,14.60
2018-09-13T07:23:23.199Z,14.60
2018-09-13T07:25:50.958Z,14.60
2018-09-13T07:28:18.855Z,14.60
2018-09-13T07:30:47.594Z,14.60
2018-09-13T07:33:15.391Z,14.60
2018-09-13T07:35:43.513Z,14.60
2018-09-13T07:38:11.364Z,14.70
2018-09-13T07:40:40.085Z,14.70
2018-09-13T07:43:18.038Z,14.70
2018-09-13T07:45:47.453Z,14.60
2018-09-13T07:48:16.014Z,14.70
2018-09-13T07:50:45.258Z,14.70
2018-09-13T07:53:14.072Z,14.70
2018-09-13T07:55:43.041Z,14.70
2018-09-13T07:58:12.048Z,14.80
2018-09-13T08:00:41.186Z,14.80
2018-09-13T08:03:09.532Z,14.80
2018-09-13T08:05:38.775Z,14.70
2018-09-13T08:08:06.866Z,14.70
2018-09-13T08:10:36.465Z,14.70
2018-09-13T08:13:04.861Z,14.80
2018-09-13T08:15:33.184Z,14.90
2018-09-13T08:18:01.504Z,14.90
2018-09-13T08:20:29.996Z,14.90
2018-09-13T08:22:59.209Z,15.00
2018-09-13T08:25:27.127Z,15.00
2018-09-13T08:27:55.369Z,15.00
2018-09-13T08:30:24.002Z,14.90
2018-09-13T08:32:53.238Z,14.90
2018-09-13T08:35:21.253Z,15.00
2018-09-13T08:37:49.067Z,15.00
2018-09-13T08:40:18.170Z,14.90
2018-09-13T08:42:46.257Z,14.90
2018-09-13T08:45:14.795Z,14.90
2018-09-13T08:47:42.993Z,14.90
2018-09-13T08:50:10.988Z,15.00
2018-09-13T08:52:39.548Z,15.10
2018-09-13T08:55:16.020Z,15.20
2018-09-13T08:57:43.879Z,15.30
2018-09-13T09:00:13.070Z,15.30
2018-09-13T09:02:41.624Z,15.30
2018-09-13T09:05:09.984Z,15.40
2018-09-13T09:07:38.697Z,15.50
2018-09-13T09:10:06.917Z,15.40
2018-09-13T09:12:35.406Z,15.40
2018-09-13T09:15:04.473Z,15.20
2018-09-13T09:17:32.272Z,15.20
2018-09-13T09:20:00.016Z,15.20
2018-09-13T09:22:27.864Z,15.20
2018-09-13T09:24:56.841Z,15.20
2018-09-13T09:27:25.200Z,15.10
2018-09-13T09:29:53.346Z,15.10
2018-09-13T09:32:21.968Z,15.10
2018-09-13T09:34:49.996Z,15.10
2018-09-13T09:37:17.915Z,15.00
2018-09-13T09:39:45.929Z,15.10
2018-09-13T09:42:13.735Z,15.10
2018-09-13T09:44:41.524Z,15.10
2018-09-13T09:47:09.438Z,15.10
2018-09-13T09:49:37.367Z,15.10
2018-09-13T09:52:05.877Z,15.20
2018-09-13T09:54:34.025Z,15.20
2018-09-13T09:57:01.739Z,15.20
2018-09-13T09:59:29.534Z,15.20
2018-09-13T10:02:02.953Z,15.20
2018-09-13T10:04:30.737Z,15.20
2018-09-13T10:06:58.670Z,15.20
2018-09-13T10:09:26.792Z,15.20
2018-09-13T10:11:54.664Z,15.30
2018-09-13T10:14:22.599Z,15.40
2018-09-13T10:16:56.185Z,15.40
2018-09-13T10:19:29.605Z,15.30
2018-09-13T10:23:01.821Z,15.30
2018-09-13T10:25:35.319Z,15.30
2018-09-13T10:28:09.536Z,15.40
2018-09-13T10:30:43.385Z,15.40
2018-09-13T10:34:19.659Z,15.50
2018-09-13T10:36:53.128Z,15.50
2018-09-13T10:39:26.725Z,15.70
2018-09-13T10:42:00.343Z,15.80
2018-09-13T10:44:34.851Z,16.00
2018-09-13T10:47:08.232Z,16.10
2018-09-13T10:49:41.854Z,16.00
2018-09-13T10:52:15.819Z,16.00
2018-09-13T10:54:43.862Z,16.00
2018-09-13T10:57:17.275Z,16.00
2018-09-13T10:59:46.614Z,16.00
2018-09-13T11:02:14.457Z,16.00
2018-09-13T11:04:42.422Z,16.00
2018-09-13T11:07:11.162Z,16.00
2018-09-13T11:09:39.505Z,16.00
2018-09-13T11:12:07.863Z,16.00
2018-09-13T11:14:42.356Z,16.00
2018-09-13T11:17:10.270Z,16.10
2018-09-13T11:19:38.080Z,16.10
2018-09-13T11:22:06.384Z,16.00
2018-09-13T11:24:34.164Z,16.00
2018-09-13T11:27:01.882Z,16.10
2018-09-13T11:29:29.596Z,16.20
2018-09-13T11:31:57.565Z,16.10
2018-09-13T11:34:25.391Z,16.10
2018-09-13T11:36:53.251Z,16.10
2018-09-13T11:39:21.001Z,16.10
2018-09-13T11:41:48.829Z,16.10
2018-09-13T11:44:17.485Z,16.10
2018-09-13T11:46:45.342Z,16.10
2018-09-13T11:49:13.263Z,16.00
2018-09-13T11:51:41.463Z,16.00
2018-09-13T11:54:09.336Z,16.10
2018-09-13T11:56:37.055Z,16.10
2018-09-13T11:59:05.044Z,16.00
2018-09-13T12:01:33.309Z,16.00
2018-09-13T12:04:01.248Z,16.00
2018-09-13T12:06:29.187Z,16.00
2018-09-13T12:08:57.242Z,16.00
2018-09-13T12:11:25.219Z,16.00
2018-09-13T12:13:53.256Z,16.10
2018-09-13T12:16:21.554Z,16.10
2018-09-13T12:18:49.633Z,16.10
2018-09-13T12:21:17.415Z,16.20
2018-09-13T12:23:45.270Z,16.20
2018-09-13T12:26:12.984Z,16.20
2018-09-13T12:28:40.682Z,16.20
2018-09-13T12:31:08.563Z,16.20
2018-09-13T12:33:36.603Z,16.10
2018-09-13T12:36:04.437Z,16.10
2018-09-13T12:38:32.198Z,16.00
2018-09-13T12:41:00.125Z,16.00
2018-09-13T12:43:28.310Z,16.00
2018-09-13T12:45:56.716Z,16.00
2018-09-13T12:48:25.187Z,16.00
2018-09-13T12:50:53.100Z,15.90
2018-09-13T12:53:21.540Z,16.00
2018-09-13T12:55:54.428Z,16.10
2018-09-13T12:58:23.327Z,16.10
2018-09-13T13:00:51.179Z,15.90
2018-09-13T13:03:19.390Z,15.80
2018-09-13T13:05:48.566Z,15.80
2018-09-13T13:08:16.973Z,15.80
2018-09-13T13:10:46.046Z,15.80
2018-09-13T13:13:15.076Z,15.80
2018-09-13T13:15:43.298Z,15.80
2018-09-13T13:18:11.450Z,15.80
2018-09-13T13:20:39.302Z,15.90
2018-09-13T13:23:07.121Z,15.90
2018-09-13T13:25:35.211Z,15.90
2018-09-13T13:28:03.856Z,15.90
2018-09-13T13:30:32.055Z,15.90
2018-09-13T13:33:01.891Z,15.90
2018-09-13T13:35:29.939Z,15.90
2018-09-13T13:37:58.616Z,15.90
2018-09-13T13:40:26.410Z,15.80
2018-09-13T13:42:54.639Z,15.80
2018-09-13T13:45:22.429Z,15.80
2018-09-13T13:47:50.498Z,15.70
2018-09-13T13:50:19.305Z,15.70
2018-09-13T13:52:47.476Z,15.70
2018-09-13T13:55:15.573Z,15.80
2018-09-13T13:57:43.664Z,15.90
2018-09-13T14:00:11.940Z,15.90
2018-09-13T14:02:40.312Z,16.00
2018-09-13T14:05:08.309Z,16.00
2018-09-13T14:07:36.188Z,16.00
2018-09-13T14:10:04.342Z,16.00
2018-09-13T14:12:32.195Z,16.00
2018-09-13T14:15:00.637Z,16.10
2018-09-13T14:17:28.902Z,16.10
2018-09-13T14:19:56.734Z,16.10
2018-09-13T14:22:24.718Z,16.10
2018-09-13T14:24:52.930Z,16.10
2018-09-13T14:27:21.163Z,16.10
2018-09-13T14:29:50.149Z,16.10
2018-09-13T14:32:18.040Z,16.10
2018-09-13T14:34:45.981Z,16.10
2018-09-13T14:37:13.922Z,16.10
2018-09-13T14:39:41.824Z,16.10
2018-09-13T14:42:10.941Z,16.10
2018-09-13T14:44:38.886Z,16.10
2018-09-13T14:47:07.161Z,16.10
2018-09-13T14:49:35.185Z,16.00
2018-09-13T14:52:03.127Z,16.00
2018-09-13T14:54:30.869Z,15.90
2018-09-13T14:56:58.537Z,15.90
2018-09-13T14:59:27.240Z,15.90
2018-09-13T15:01:55.144Z,15.90
2018-09-13T15:04:23.934Z,16.00
2018-09-13T15:06:52.986Z,16.00
2018-09-13T15:09:20.850Z,16.00
2018-09-13T15:11:49.673Z,15.90
2018-09-13T15:14:18.357Z,15.90
2018-09-13T15:16:46.414Z,15.90
2018-09-13T15:19:14.382Z,15.90
2018-09-13T15:21:42.613Z,15.90
2018-09-13T15:24:10.541Z,16.00
2018-09-13T15:26:38.813Z,16.00
2018-09-13T15:29:06.758Z,16.00
2018-09-13T15:31:35.722Z,16.00
2018-09-13T15:34:03.664Z,15.90
2018-09-13T15:36:31.667Z,15.90
2018-09-13T15:38:59.531Z,15.80
2018-09-13T15:41:27.553Z,15.70
2018-09-13T15:43:55.497Z,15.70
2018-09-13T15:46:23.310Z,15.70
2018-09-13T15:48:51.171Z,15.60
2018-09-13T15:51:19.144Z,15.60
2018-09-13T15:53:47.149Z,15.60
2018-09-13T15:56:15.781Z,15.60
2018-09-13T15:58:43.794Z,15.50
2018-09-13T16:01:11.765Z,15.50
2018-09-13T16:03:39.949Z,15.50
2018-09-13T16:06:07.906Z,15.40
2018-09-13T16:08:35.757Z,15.40
2018-09-13T16:11:03.727Z,15.40
2018-09-13T16:13:32.725Z,15.40
2018-09-13T16:16:00.498Z,15.40
2018-09-13T16:18:29.133Z,15.40
2018-09-13T16:20:57.167Z,15.40
2018-09-13T16:23:25.193Z,15.40
2018-09-13T16:25:53.171Z,15.40
2018-09-13T16:28:21.201Z,15.40
2018-09-13T16:30:49.058Z,15.40
2018-09-13T16:33:16.898Z,15.40
2018-09-13T16:35:48.001Z,15.40
2018-09-13T16:38:21.615Z,15.40
2018-09-13T16:40:54.949Z,15.40
2018-09-13T16:43:28.633Z,15.40
2018-09-13T16:45:57.135Z,15.40
2018-09-13T16:48:29.704Z,15.30
2018-09-13T16:50:58.030Z,15.30
2018-09-13T16:53:26.182Z,15.30
2018-09-13T16:55:54.281Z,15.20
2018-09-13T16:58:23.055Z,15.30
2018-09-13T17:00:51.577Z,15.30
2018-09-13T17:03:20.986Z,15.30
2018-09-13T17:05:48.785Z,15.20
2018-09-13T17:08:16.983Z,15.20
2018-09-13T17:10:44.881Z,15.20
2018-09-13T17:13:15.791Z,15.20
2018-09-13T17:15:44.681Z,15.20
2018-09-13T17:18:12.593Z,15.20
2018-09-13T17:20:40.653Z,15.20
2018-09-13T17:23:08.470Z,15.20
2018-09-13T17:25:38.191Z,15.20
2018-09-13T17:28:06.978Z,15.20
2018-09-13T17:30:35.971Z,15.10
2018-09-13T17:33:04.839Z,15.20
2018-09-13T17:35:33.183Z,15.20
2018-09-13T17:38:02.112Z,15.20
2018-09-13T17:40:31.718Z,15.10
2018-09-13T17:43:00.617Z,15.10
2018-09-13T17:45:30.208Z,15.00
2018-09-13T17:48:01.335Z,15.00
2018-09-13T17:50:32.156Z,15.00
2018-09-13T17:53:00.874Z,15.10
2018-09-13T17:55:31.702Z,15.10
2018-09-13T17:58:01.565Z,15.00
2018-09-13T18:00:31.312Z,15.00
2018-09-13T18:02:59.981Z,15.00
2018-09-13T18:05:30.337Z,15.00
2018-09-13T18:08:01.676Z,15.00
2018-09-13T18:10:29.575Z,15.00
2018-09-13T18:12:57.371Z,15.00
2018-09-13T18:15:25.242Z,15.00
2018-09-13T18:17:53.107Z,15.00
2018-09-13T18:20:21.281Z,15.00
2018-09-13T18:22:51.588Z,15.00
2018-09-13T18:25:20.158Z,14.90
2018-09-13T18:27:48.444Z,14.90
2018-09-13T18:30:16.833Z,14.90
2018-09-13T18:32:44.994Z,14.90
2018-09-13T18:35:13.711Z,14.90
2018-09-13T18:37:42.122Z,14.90
2018-09-13T18:40:10.963Z,14.90
2018-09-13T18:42:40.290Z,14.90
2018-09-13T18:45:08.835Z,14.90
2018-09-13T18:47:38.611Z,14.90
2018-09-13T18:50:07.081Z,14.80
2018-09-13T18:52:36.775Z,14.80
2018-09-13T18:55:05.043Z,14.90
2018-09-13T18:57:32.891Z,14.90
2018-09-13T19:00:00.954Z,14.80
2018-09-13T19:02:28.763Z,14.80
2018-09-13T19:04:56.742Z,14.80
2018-09-13T19:07:24.767Z,14.80
2018-09-13T19:09:53.110Z,14.80
2018-09-13T19:12:21.231Z,14.70
2018-09-13T19:14:49.194Z,14.70
2018-09-13T19:17:17.065Z,14.70
2018-09-13T19:19:46.687Z,14.70
2018-09-13T19:22:14.576Z,14.60
2018-09-13T19:24:42.564Z,14.60
2018-09-13T19:27:10.371Z,14.60
2018-09-13T19:29:38.351Z,14.60
2018-09-13T19:32:06.813Z,14.60
2018-09-13T19:34:34.692Z,14.50
2018-09-13T19:37:02.483Z,14.50
2018-09-13T19:39:30.542Z,14.50
2018-09-13T19:41:58.872Z,14.50
2018-09-13T19:44:26.704Z,14.50
2018-09-13T19:47:02.225Z,14.50
2018-09-13T19:49:30.048Z,14.50
2018-09-13T19:52:00.977Z,14.50
2018-09-13T19:54:30.389Z,14.40
2018-09-13T19:56:58.985Z,14.40
2018-09-13T19:59:26.944Z,14.40
2018-09-13T20:01:54.895Z,14.40
2018-09-13T20:04:22.793Z,14.40
2018-09-13T20:06:50.657Z,14.40
2018-09-13T20:09:18.557Z,14.40
2018-09-13T20:11:46.719Z,14.30
2018-09-13T20:14:15.112Z,14.30
2018-09-13T20:16:43.348Z,14.30
2018-09-13T20:19:11.165Z,14.20
2018-09-13T20:21:39.084Z,14.20
2018-09-13T20:24:08.041Z,14.20
2018-09-13T20:26:37.321Z,14.20
2018-09-13T20:29:06.138Z,14.10
2018-09-13T20:31:35.024Z,14.10
2018-09-13T20:34:02.900Z,14.10
2018-09-13T20:36:31.091Z,14.10
2018-09-13T20:38:59.249Z,14.10
2018-09-13T20:41:27.561Z,14.10
2018-09-13T20:43:55.593Z,14.10
2018-09-13T20:46:23.532Z,14.10
2018-09-13T20:48:54.154Z,14.10
2018-09-13T20:51:22.375Z,14.10
2018-09-13T20:53:50.054Z,14.10
2018-09-13T20:56:19.677Z,14.20
2018-09-13T20:58:48.070Z,14.20
2018-09-13T21:01:16.366Z,14.20
2018-09-13T21:03:44.723Z,14.20
2018-09-13T21:06:12.552Z,14.10
2018-09-13T21:08:40.266Z,14.10
2018-09-13T21:11:08.024Z,14.10
2018-09-13T21:13:36.312Z,14.10
2018-09-13T21:16:04.098Z,14.20
2018-09-13T21:18:31.796Z,14.20
2018-09-13T21:20:59.807Z,14.20
2018-09-13T21:23:27.612Z,14.10
2018-09-13T21:25:55.632Z,14.10
2018-09-13T21:28:23.631Z,14.10
2018-09-13T21:30:51.467Z,14.10
2018-09-13T21:33:19.399Z,14.10
2018-09-13T21:35:47.086Z,14.10
2018-09-13T21:38:14.777Z,14.10
2018-09-13T21:40:43.377Z,14.10
2018-09-13T21:43:11.338Z,14.10
2018-09-13T21:45:39.082Z,14.10
2018-09-13T21:48:06.954Z,14.00
2018-09-13T21:50:34.738Z,14.00
2018-09-13T21:53:02.468Z,14.00
2018-09-13T21:55:30.168Z,14.10
2018-09-13T21:57:58.063Z,14.10
2018-09-13T22:00:25.823Z,14.00
2018-09-13T22:02:53.523Z,14.00
2018-09-13T22:05:21.553Z,14.00
2018-09-13T22:07:49.388Z,14.00
2018-09-13T22:10:17.339Z,14.00
2018-09-13T22:12:45.294Z,13.90
2018-09-13T22:15:13.144Z,13.90
2018-09-13T22:17:40.916Z,13.90
2018-09-13T22:20:08.690Z,13.90
2018-09-13T22:22:36.496Z,13.90
2018-09-13T22:25:04.304Z,13.90
2018-09-13T22:27:32.079Z,13.90
2018-09-13T22:29:59.909Z,13.90
2018-09-13T22:32:27.720Z,13.90
2018-09-13T22:34:55.537Z,13.90
2018-09-13T22:37:23.484Z,13.90
2018-09-13T22:39:51.241Z,13.90
2018-09-13T22:42:18.945Z,13.90
2018-09-13T22:44:46.759Z,13.90
2018-09-13T22:47:14.694Z,13.80
2018-09-13T22:49:42.407Z,13.80
2018-09-13T22:52:10.219Z,13.80
2018-09-13T22:54:38.149Z,13.70
2018-09-13T22:57:06.638Z,13.70
2018-09-13T22:59:34.450Z,13.70
2018-09-13T23:02:02.313Z,13.70
2018-09-13T23:04:30.073Z,13.70
2018-09-13T23:06:58.214Z,13.60
2018-09-13T23:09:26.080Z,13.60
2018-09-13T23:11:54.111Z,13.60
2018-09-13T23:14:21.998Z,13.60
2018-09-13T23:16:49.849Z,13.60
2018-09-13T23:19:17.627Z,13.60
2018-09-13T23:21:45.326Z,13.60
2018-09-13T23:24:15.389Z,13.70
2018-09-13T23:26:43.233Z,13.70
2018-09-13T23:29:11.086Z,13.70
2018-09-13T23:31:38.801Z,13.70
2018-09-13T23:34:06.564Z,13.70
2018-09-13T23:36:35.065Z,13.70
2018-09-13T23:39:04.054Z,13.70
2018-09-13T23:41:31.740Z,13.70
2018-09-13T23:43:59.498Z,13.70
2018-09-13T23:46:27.330Z,13.70
2018-09-13T23:48:55.089Z,13.70
2018-09-13T23:51:22.906Z,13.70
2018-09-13T23:53:50.651Z,13.70
2018-09-13T23:56:18.285Z,13.70
2018-09-13T23:58:46.342Z,13.70
